Aeroporto :
LOGIN :

Iscrizione | Disclaimer

   EN    FR    IT 

 










Sommario :    VFR   VFR Marginale   IFR   IFR Intensivo   IFR Molto Intensivo
Visibilità : 
Base nubi : 
>= 8 km
>= 3000ft
5 / 8 km
1000 / 3000 ft
1500m / 5 km
500 / 1000 ft
800 / 1500m
200 / 500 ft
< 800m
< 200 ft
Simboli :   Temporali  Nebbia  Neve Forte  Precipitazioni Forti  Vento > 20 kt
SIGMETs :   Varie  Temporali  Ghiacco  Turbolenza  Onda orograficha  Ceneri Vulcaniche






- Altitudine del aeroporto : 6 ft
- Codice IATA : CFU


LGKR - Corfu Kerkyra

ULTIMO METAR :
  • 230650Z VRB03KT 9999 FEW025 30/25 Q1007 NOSIG

METARs OBSOLETI :
  • 230620Z 00000KT 9999 FEW025 29/25 Q1007 NOSIG
  • 230550Z 00000KT 9999 FEW025 29/25 Q1007 NOSIG
  • 230520Z 00000KT 9999 FEW025 27/24 Q1007 NOSIG
  • 230450Z VRB02KT 9999 FEW025 25/23 Q1007 NOSIG
  • 230420Z VRB02KT 9999 FEW025 25/23 Q1007 NOSIG
  • 230350Z VRB02KT 9999 FEW030 25/23 Q1007 NOSIG
  • 230320Z VRB02KT 9999 FEW025 25/23 Q1007 NOSIG
  • 230250Z VRB02KT 9999 FEW030 25/23 Q1007 NOSIG
  • 230220Z VRB03KT 9999 FEW030 25/23 Q1007 NOSIG

TAF TAF LGKR
Valido dal 23 a 06 ore il 24 a 06 ore UTC


230500Z 2306/2406 VRB03KT 9999 FEW030



MetMap, La meteo Aeronautica in un colpo d'occhio ! - Copyright ORBIFLY Dicembre 2007 - Disclaimer

ORBIFLY MET'MAP TEAM :

Programmazione e sviluppo : Alexandra Zaïnal
Concezione : Baudouin d'Aumeries
Supporto tecnico e logistico : Manuel Goepfert
Aiuto : Marc-Olivier Méhu
Aiuto per la traduzione : Arnaldo La Scala




FONTI E CREDITI :

   NOAA